sensor_id;sensor_type;location;lat;lon;timestamp;P1;durP1;ratioP1;P2;durP2;ratioP2
6850;SDS011;3464;42.728;23.296;2022-12-29T00:00:24;29.30;;;16.40;;
6850;SDS011;3464;42.728;23.296;2022-12-29T00:02:51;31.23;;;16.07;;
6850;SDS011;3464;42.728;23.296;2022-12-29T00:05:18;28.77;;;16.73;;
6850;SDS011;3464;42.728;23.296;2022-12-29T00:07:44;28.17;;;17.03;;
6850;SDS011;3464;42.728;23.296;2022-12-29T00:10:11;31.10;;;17.60;;
6850;SDS011;3464;42.728;23.296;2022-12-29T00:12:38;30.60;;;16.37;;
6850;SDS011;3464;42.728;23.296;2022-12-29T00:15:10;29.30;;;16.70;;
6850;SDS011;3464;42.728;23.296;2022-12-29T00:17:43;30.37;;;16.80;;
6850;SDS011;3464;42.728;23.296;2022-12-29T00:20:10;27.37;;;16.37;;
6850;SDS011;3464;42.728;23.296;2022-12-29T00:22:54;34.20;;;17.93;;
6850;SDS011;3464;42.728;23.296;2022-12-29T00:25:26;29.80;;;16.90;;
6850;SDS011;3464;42.728;23.296;2022-12-29T00:27:58;31.37;;;17.30;;
6850;SDS011;3464;42.728;23.296;2022-12-29T00:30:42;31.00;;;17.90;;
6850;SDS011;3464;42.728;23.296;2022-12-29T00:33:30;35.00;;;19.70;;
6850;SDS011;3464;42.728;23.296;2022-12-29T00:36:03;38.63;;;19.73;;
6850;SDS011;3464;42.728;23.296;2022-12-29T00:38:30;34.83;;;20.33;;
6850;SDS011;3464;42.728;23.296;2022-12-29T00:41:01;37.73;;;20.00;;
6850;SDS011;3464;42.728;23.296;2022-12-29T00:43:34;35.70;;;19.73;;
6850;SDS011;3464;42.728;23.296;2022-12-29T00:46:06;32.93;;;18.20;;
6850;SDS011;3464;42.728;23.296;2022-12-29T00:48:32;35.33;;;19.07;;
6850;SDS011;3464;42.728;23.296;2022-12-29T00:51:04;33.33;;;19.17;;
6850;SDS011;3464;42.728;23.296;2022-12-29T00:53:31;33.47;;;20.17;;
6850;SDS011;3464;42.728;23.296;2022-12-29T00:55:57;33.30;;;18.87;;
6850;SDS011;3464;42.728;23.296;2022-12-29T00:58:27;38.10;;;20.00;;
6850;SDS011;3464;42.728;23.296;2022-12-29T01:01:00;34.33;;;19.30;;
6850;SDS011;3464;42.728;23.296;2022-12-29T01:03:20;32.30;;;19.33;;
6850;SDS011;3464;42.728;23.296;2022-12-29T01:05:46;34.37;;;18.57;;
6850;SDS011;3464;42.728;23.296;2022-12-29T01:08:13;35.80;;;19.57;;
6850;SDS011;3464;42.728;23.296;2022-12-29T01:10:39;36.00;;;19.80;;
6850;SDS011;3464;42.728;23.296;2022-12-29T01:13:06;35.10;;;19.10;;
6850;SDS011;3464;42.728;23.296;2022-12-29T01:15:33;33.10;;;19.43;;
6850;SDS011;3464;42.728;23.296;2022-12-29T01:18:00;30.13;;;18.77;;
6850;SDS011;3464;42.728;23.296;2022-12-29T01:20:26;32.60;;;19.50;;
6850;SDS011;3464;42.728;23.296;2022-12-29T01:22:53;31.57;;;18.77;;
6850;SDS011;3464;42.728;23.296;2022-12-29T01:25:20;36.30;;;19.50;;
6850;SDS011;3464;42.728;23.296;2022-12-29T01:27:47;34.33;;;19.10;;
6850;SDS011;3464;42.728;23.296;2022-12-29T01:30:13;31.53;;;18.23;;
6850;SDS011;3464;42.728;23.296;2022-12-29T01:32:40;29.50;;;18.10;;
6850;SDS011;3464;42.728;23.296;2022-12-29T01:35:06;32.67;;;18.83;;
6850;SDS011;3464;42.728;23.296;2022-12-29T01:37:33;32.33;;;19.03;;
6850;SDS011;3464;42.728;23.296;2022-12-29T01:40:00;29.20;;;17.50;;
6850;SDS011;3464;42.728;23.296;2022-12-29T01:42:26;31.00;;;18.80;;
6850;SDS011;3464;42.728;23.296;2022-12-29T01:44:56;32.37;;;18.83;;
6850;SDS011;3464;42.728;23.296;2022-12-29T01:47:25;37.13;;;18.60;;
6850;SDS011;3464;42.728;23.296;2022-12-29T01:49:52;38.10;;;18.80;;
6850;SDS011;3464;42.728;23.296;2022-12-29T01:52:18;34.57;;;19.57;;
6850;SDS011;3464;42.728;23.296;2022-12-29T01:54:47;30.60;;;18.03;;
6850;SDS011;3464;42.728;23.296;2022-12-29T01:57:13;33.30;;;19.30;;
6850;SDS011;3464;42.728;23.296;2022-12-29T01:59:40;30.40;;;18.90;;
6850;SDS011;3464;42.728;23.296;2022-12-29T02:02:05;32.60;;;19.37;;
6850;SDS011;3464;42.728;23.296;2022-12-29T02:04:32;29.83;;;18.07;;
6850;SDS011;3464;42.728;23.296;2022-12-29T02:07:01;30.33;;;18.00;;
6850;SDS011;3464;42.728;23.296;2022-12-29T02:09:27;29.10;;;17.93;;
6850;SDS011;3464;42.728;23.296;2022-12-29T02:11:53;31.00;;;17.77;;
6850;SDS011;3464;42.728;23.296;2022-12-29T02:14:20;32.10;;;18.53;;
6850;SDS011;3464;42.728;23.296;2022-12-29T02:16:52;35.80;;;19.10;;
6850;SDS011;3464;42.728;23.296;2022-12-29T02:20:29;28.80;;;18.20;;
6850;SDS011;3464;42.728;23.296;2022-12-29T02:24:46;30.23;;;18.20;;
6850;SDS011;3464;42.728;23.296;2022-12-29T02:30:03;31.60;;;17.93;;
6850;SDS011;3464;42.728;23.296;2022-12-29T02:32:30;28.07;;;16.33;;
6850;SDS011;3464;42.728;23.296;2022-12-29T02:38:07;33.57;;;17.40;;
6850;SDS011;3464;42.728;23.296;2022-12-29T02:40:45;27.67;;;16.83;;
6850;SDS011;3464;42.728;23.296;2022-12-29T02:43:15;28.40;;;16.07;;
6850;SDS011;3464;42.728;23.296;2022-12-29T02:45:54;29.10;;;17.07;;
6850;SDS011;3464;42.728;23.296;2022-12-29T02:48:28;26.07;;;15.50;;
6850;SDS011;3464;42.728;23.296;2022-12-29T02:51:00;28.30;;;15.90;;
6850;SDS011;3464;42.728;23.296;2022-12-29T02:53:26;30.37;;;15.60;;
6850;SDS011;3464;42.728;23.296;2022-12-29T02:55:59;33.13;;;16.27;;
6850;SDS011;3464;42.728;23.296;2022-12-29T02:58:26;27.13;;;16.03;;
6850;SDS011;3464;42.728;23.296;2022-12-29T03:01:01;30.30;;;16.57;;
6850;SDS011;3464;42.728;23.296;2022-12-29T03:03:53;27.17;;;15.97;;
6850;SDS011;3464;42.728;23.296;2022-12-29T03:06:35;27.77;;;15.80;;
6850;SDS011;3464;42.728;23.296;2022-12-29T03:09:03;27.87;;;15.47;;
6850;SDS011;3464;42.728;23.296;2022-12-29T03:11:33;24.93;;;15.33;;
6850;SDS011;3464;42.728;23.296;2022-12-29T03:14:07;24.57;;;14.27;;
6850;SDS011;3464;42.728;23.296;2022-12-29T03:21:48;26.37;;;14.80;;
6850;SDS011;3464;42.728;23.296;2022-12-29T03:24:22;27.43;;;15.00;;
6850;SDS011;3464;42.728;23.296;2022-12-29T03:26:47;26.53;;;14.77;;
6850;SDS011;3464;42.728;23.296;2022-12-29T03:29:13;26.87;;;15.37;;
6850;SDS011;3464;42.728;23.296;2022-12-29T03:31:40;28.30;;;16.33;;
6850;SDS011;3464;42.728;23.296;2022-12-29T03:34:06;29.27;;;16.53;;
6850;SDS011;3464;42.728;23.296;2022-12-29T03:36:35;33.90;;;17.77;;
6850;SDS011;3464;42.728;23.296;2022-12-29T03:39:02;25.60;;;15.90;;
6850;SDS011;3464;42.728;23.296;2022-12-29T03:41:28;31.40;;;17.53;;
6850;SDS011;3464;42.728;23.296;2022-12-29T03:43:52;36.70;;;18.73;;
6850;SDS011;3464;42.728;23.296;2022-12-29T03:46:19;33.47;;;19.90;;
6850;SDS011;3464;42.728;23.296;2022-12-29T03:48:45;36.40;;;20.00;;
6850;SDS011;3464;42.728;23.296;2022-12-29T03:51:12;33.17;;;18.97;;
6850;SDS011;3464;42.728;23.296;2022-12-29T03:53:39;34.03;;;19.80;;
6850;SDS011;3464;42.728;23.296;2022-12-29T03:56:05;36.57;;;20.33;;
6850;SDS011;3464;42.728;23.296;2022-12-29T03:58:32;35.10;;;21.10;;
6850;SDS011;3464;42.728;23.296;2022-12-29T04:01:02;34.13;;;20.33;;
6850;SDS011;3464;42.728;23.296;2022-12-29T04:03:28;37.70;;;21.73;;
6850;SDS011;3464;42.728;23.296;2022-12-29T04:05:55;34.93;;;20.63;;
6850;SDS011;3464;42.728;23.296;2022-12-29T04:08:21;35.17;;;20.47;;
6850;SDS011;3464;42.728;23.296;2022-12-29T04:10:48;37.93;;;21.90;;
6850;SDS011;3464;42.728;23.296;2022-12-29T04:13:14;37.00;;;20.03;;
6850;SDS011;3464;42.728;23.296;2022-12-29T04:15:42;37.50;;;22.37;;
6850;SDS011;3464;42.728;23.296;2022-12-29T04:18:07;38.77;;;21.70;;
6850;SDS011;3464;42.728;23.296;2022-12-29T04:20:34;38.20;;;22.20;;
6850;SDS011;3464;42.728;23.296;2022-12-29T04:23:06;38.23;;;23.00;;
6850;SDS011;3464;42.728;23.296;2022-12-29T04:25:33;36.67;;;22.47;;
6850;SDS011;3464;42.728;23.296;2022-12-29T04:27:59;38.67;;;23.10;;
6850;SDS011;3464;42.728;23.296;2022-12-29T04:30:26;36.70;;;23.07;;
6850;SDS011;3464;42.728;23.296;2022-12-29T04:32:53;38.20;;;22.93;;
6850;SDS011;3464;42.728;23.296;2022-12-29T04:35:19;40.80;;;23.47;;
6850;SDS011;3464;42.728;23.296;2022-12-29T04:37:46;39.63;;;23.07;;
6850;SDS011;3464;42.728;23.296;2022-12-29T04:40:13;43.17;;;23.50;;
6850;SDS011;3464;42.728;23.296;2022-12-29T04:42:40;41.80;;;24.00;;
6850;SDS011;3464;42.728;23.296;2022-12-29T04:45:06;38.23;;;23.17;;
6850;SDS011;3464;42.728;23.296;2022-12-29T04:47:34;39.10;;;23.17;;
6850;SDS011;3464;42.728;23.296;2022-12-29T04:50:00;40.93;;;23.67;;
6850;SDS011;3464;42.728;23.296;2022-12-29T04:52:27;59.90;;;29.73;;
6850;SDS011;3464;42.728;23.296;2022-12-29T04:54:54;62.10;;;29.03;;
6850;SDS011;3464;42.728;23.296;2022-12-29T04:57:20;57.50;;;26.60;;
6850;SDS011;3464;42.728;23.296;2022-12-29T04:59:47;96.87;;;37.10;;
6850;SDS011;3464;42.728;23.296;2022-12-29T05:02:15;49.90;;;26.03;;
6850;SDS011;3464;42.728;23.296;2022-12-29T05:04:41;46.33;;;24.80;;
6850;SDS011;3464;42.728;23.296;2022-12-29T05:07:08;57.93;;;27.50;;
6850;SDS011;3464;42.728;23.296;2022-12-29T05:09:34;52.37;;;25.50;;
6850;SDS011;3464;42.728;23.296;2022-12-29T05:12:01;55.73;;;32.70;;
6850;SDS011;3464;42.728;23.296;2022-12-29T05:14:27;53.00;;;34.43;;
6850;SDS011;3464;42.728;23.296;2022-12-29T05:19:38;51.40;;;30.93;;
6850;SDS011;3464;42.728;23.296;2022-12-29T05:22:05;48.03;;;27.40;;
6850;SDS011;3464;42.728;23.296;2022-12-29T05:24:35;45.00;;;26.90;;
6850;SDS011;3464;42.728;23.296;2022-12-29T05:27:02;53.23;;;29.37;;
6850;SDS011;3464;42.728;23.296;2022-12-29T05:29:28;50.90;;;27.13;;
6850;SDS011;3464;42.728;23.296;2022-12-29T05:31:56;41.60;;;23.80;;
6850;SDS011;3464;42.728;23.296;2022-12-29T05:34:23;39.53;;;21.93;;
6850;SDS011;3464;42.728;23.296;2022-12-29T05:36:50;39.53;;;22.93;;
6850;SDS011;3464;42.728;23.296;2022-12-29T05:39:16;40.80;;;23.90;;
6850;SDS011;3464;42.728;23.296;2022-12-29T05:41:43;41.40;;;25.17;;
6850;SDS011;3464;42.728;23.296;2022-12-29T05:44:10;39.33;;;22.83;;
6850;SDS011;3464;42.728;23.296;2022-12-29T05:46:36;44.60;;;23.23;;
6850;SDS011;3464;42.728;23.296;2022-12-29T05:49:04;39.83;;;21.10;;
6850;SDS011;3464;42.728;23.296;2022-12-29T05:54:15;40.17;;;21.70;;
6850;SDS011;3464;42.728;23.296;2022-12-29T05:56:42;35.70;;;20.93;;
6850;SDS011;3464;42.728;23.296;2022-12-29T05:59:09;35.27;;;21.13;;
6850;SDS011;3464;42.728;23.296;2022-12-29T06:01:36;38.23;;;21.53;;
6850;SDS011;3464;42.728;23.296;2022-12-29T06:04:03;40.73;;;22.00;;
6850;SDS011;3464;42.728;23.296;2022-12-29T06:06:29;41.90;;;21.37;;
6850;SDS011;3464;42.728;23.296;2022-12-29T06:08:56;40.83;;;22.90;;
6850;SDS011;3464;42.728;23.296;2022-12-29T06:11:23;43.40;;;20.13;;
6850;SDS011;3464;42.728;23.296;2022-12-29T06:13:49;35.03;;;19.00;;
6850;SDS011;3464;42.728;23.296;2022-12-29T06:16:17;30.57;;;17.50;;
6850;SDS011;3464;42.728;23.296;2022-12-29T06:18:44;29.50;;;17.60;;
6850;SDS011;3464;42.728;23.296;2022-12-29T06:21:11;31.77;;;17.07;;
6850;SDS011;3464;42.728;23.296;2022-12-29T06:23:38;29.00;;;16.00;;
6850;SDS011;3464;42.728;23.296;2022-12-29T06:26:05;33.03;;;17.60;;
6850;SDS011;3464;42.728;23.296;2022-12-29T06:28:31;29.40;;;16.73;;
6850;SDS011;3464;42.728;23.296;2022-12-29T06:30:58;32.83;;;18.53;;
6850;SDS011;3464;42.728;23.296;2022-12-29T06:33:24;31.53;;;18.10;;
6850;SDS011;3464;42.728;23.296;2022-12-29T06:35:51;35.37;;;19.30;;
6850;SDS011;3464;42.728;23.296;2022-12-29T06:38:18;40.57;;;19.40;;
6850;SDS011;3464;42.728;23.296;2022-12-29T06:40:45;40.77;;;21.03;;
6850;SDS011;3464;42.728;23.296;2022-12-29T06:43:12;36.93;;;19.20;;
6850;SDS011;3464;42.728;23.296;2022-12-29T06:45:38;34.43;;;19.73;;
6850;SDS011;3464;42.728;23.296;2022-12-29T06:48:05;42.90;;;20.13;;
6850;SDS011;3464;42.728;23.296;2022-12-29T06:50:32;34.03;;;18.33;;
6850;SDS011;3464;42.728;23.296;2022-12-29T06:52:58;32.87;;;17.13;;
6850;SDS011;3464;42.728;23.296;2022-12-29T06:55:25;31.63;;;17.40;;
6850;SDS011;3464;42.728;23.296;2022-12-29T06:57:54;35.17;;;17.60;;
6850;SDS011;3464;42.728;23.296;2022-12-29T07:00:21;32.47;;;17.27;;
6850;SDS011;3464;42.728;23.296;2022-12-29T07:02:47;37.93;;;16.90;;
6850;SDS011;3464;42.728;23.296;2022-12-29T07:05:17;32.20;;;17.80;;
6850;SDS011;3464;42.728;23.296;2022-12-29T07:07:44;36.87;;;19.57;;
6850;SDS011;3464;42.728;23.296;2022-12-29T07:10:11;34.40;;;19.10;;
6850;SDS011;3464;42.728;23.296;2022-12-29T07:12:37;32.00;;;17.20;;
6850;SDS011;3464;42.728;23.296;2022-12-29T07:15:04;35.33;;;18.37;;
6850;SDS011;3464;42.728;23.296;2022-12-29T07:17:31;31.13;;;17.23;;
6850;SDS011;3464;42.728;23.296;2022-12-29T07:19:58;36.27;;;17.87;;
6850;SDS011;3464;42.728;23.296;2022-12-29T07:22:25;36.13;;;17.53;;
6850;SDS011;3464;42.728;23.296;2022-12-29T07:24:52;35.00;;;16.60;;
6850;SDS011;3464;42.728;23.296;2022-12-29T07:27:19;30.33;;;17.70;;
6850;SDS011;3464;42.728;23.296;2022-12-29T07:29:45;33.77;;;17.60;;
6850;SDS011;3464;42.728;23.296;2022-12-29T07:32:12;39.03;;;18.30;;
6850;SDS011;3464;42.728;23.296;2022-12-29T07:34:38;33.77;;;17.30;;
6850;SDS011;3464;42.728;23.296;2022-12-29T07:37:05;33.57;;;16.97;;
6850;SDS011;3464;42.728;23.296;2022-12-29T07:39:32;39.13;;;17.90;;
6850;SDS011;3464;42.728;23.296;2022-12-29T07:41:59;38.50;;;18.43;;
6850;SDS011;3464;42.728;23.296;2022-12-29T07:44:25;36.53;;;17.40;;
6850;SDS011;3464;42.728;23.296;2022-12-29T07:46:52;34.00;;;17.80;;
6850;SDS011;3464;42.728;23.296;2022-12-29T07:49:19;35.60;;;18.40;;
6850;SDS011;3464;42.728;23.296;2022-12-29T07:51:46;35.63;;;17.17;;
6850;SDS011;3464;42.728;23.296;2022-12-29T07:54:13;33.50;;;18.10;;
6850;SDS011;3464;42.728;23.296;2022-12-29T07:56:40;37.63;;;18.20;;
6850;SDS011;3464;42.728;23.296;2022-12-29T07:59:06;35.40;;;17.93;;
6850;SDS011;3464;42.728;23.296;2022-12-29T08:01:33;33.07;;;17.90;;
6850;SDS011;3464;42.728;23.296;2022-12-29T08:04:00;35.50;;;18.33;;
6850;SDS011;3464;42.728;23.296;2022-12-29T08:06:28;34.10;;;17.40;;
6850;SDS011;3464;42.728;23.296;2022-12-29T08:08:56;32.97;;;16.97;;
6850;SDS011;3464;42.728;23.296;2022-12-29T08:11:23;32.00;;;16.43;;
6850;SDS011;3464;42.728;23.296;2022-12-29T08:13:50;40.10;;;20.43;;
6850;SDS011;3464;42.728;23.296;2022-12-29T08:16:17;31.87;;;17.73;;
6850;SDS011;3464;42.728;23.296;2022-12-29T08:18:43;33.10;;;16.50;;
6850;SDS011;3464;42.728;23.296;2022-12-29T08:21:10;32.47;;;16.37;;
6850;SDS011;3464;42.728;23.296;2022-12-29T08:23:37;30.73;;;16.07;;
6850;SDS011;3464;42.728;23.296;2022-12-29T08:26:05;29.77;;;16.07;;
6850;SDS011;3464;42.728;23.296;2022-12-29T08:28:31;34.77;;;16.60;;
6850;SDS011;3464;42.728;23.296;2022-12-29T08:30:58;28.87;;;16.40;;
6850;SDS011;3464;42.728;23.296;2022-12-29T08:33:25;32.30;;;16.80;;
6850;SDS011;3464;42.728;23.296;2022-12-29T08:35:51;37.43;;;17.67;;
6850;SDS011;3464;42.728;23.296;2022-12-29T08:38:17;30.50;;;15.50;;
6850;SDS011;3464;42.728;23.296;2022-12-29T08:40:44;31.20;;;17.10;;
6850;SDS011;3464;42.728;23.296;2022-12-29T08:43:13;34.80;;;17.20;;
6850;SDS011;3464;42.728;23.296;2022-12-29T08:45:38;31.27;;;17.50;;
6850;SDS011;3464;42.728;23.296;2022-12-29T08:48:05;27.63;;;15.60;;
6850;SDS011;3464;42.728;23.296;2022-12-29T08:50:32;32.07;;;17.37;;
6850;SDS011;3464;42.728;23.296;2022-12-29T08:52:58;34.50;;;17.03;;
6850;SDS011;3464;42.728;23.296;2022-12-29T08:55:25;29.40;;;16.67;;
6850;SDS011;3464;42.728;23.296;2022-12-29T08:57:51;32.00;;;17.07;;
6850;SDS011;3464;42.728;23.296;2022-12-29T09:00:18;34.57;;;17.13;;
6850;SDS011;3464;42.728;23.296;2022-12-29T09:02:45;36.93;;;17.30;;
6850;SDS011;3464;42.728;23.296;2022-12-29T09:05:11;33.60;;;17.20;;
6850;SDS011;3464;42.728;23.296;2022-12-29T09:07:39;30.13;;;16.97;;
6850;SDS011;3464;42.728;23.296;2022-12-29T09:10:06;31.70;;;18.07;;
6850;SDS011;3464;42.728;23.296;2022-12-29T09:12:32;29.20;;;17.47;;
6850;SDS011;3464;42.728;23.296;2022-12-29T09:14:59;31.73;;;17.90;;
6850;SDS011;3464;42.728;23.296;2022-12-29T09:17:25;32.47;;;17.20;;
6850;SDS011;3464;42.728;23.296;2022-12-29T09:19:58;31.90;;;18.00;;
6850;SDS011;3464;42.728;23.296;2022-12-29T09:22:24;33.83;;;16.33;;
6850;SDS011;3464;42.728;23.296;2022-12-29T09:24:51;39.47;;;18.90;;
6850;SDS011;3464;42.728;23.296;2022-12-29T09:27:17;38.30;;;18.17;;
6850;SDS011;3464;42.728;23.296;2022-12-29T09:29:44;37.57;;;18.17;;
6850;SDS011;3464;42.728;23.296;2022-12-29T09:32:11;36.50;;;18.97;;
6850;SDS011;3464;42.728;23.296;2022-12-29T09:34:37;35.43;;;19.53;;
6850;SDS011;3464;42.728;23.296;2022-12-29T09:37:04;34.67;;;20.03;;
6850;SDS011;3464;42.728;23.296;2022-12-29T09:39:30;32.90;;;18.67;;
6850;SDS011;3464;42.728;23.296;2022-12-29T09:42:04;34.90;;;18.07;;
6850;SDS011;3464;42.728;23.296;2022-12-29T09:44:44;35.03;;;18.97;;
6850;SDS011;3464;42.728;23.296;2022-12-29T09:47:09;35.63;;;19.10;;
6850;SDS011;3464;42.728;23.296;2022-12-29T09:49:40;33.57;;;17.87;;
6850;SDS011;3464;42.728;23.296;2022-12-29T09:52:18;32.23;;;18.37;;
6850;SDS011;3464;42.728;23.296;2022-12-29T09:54:46;34.57;;;18.50;;
6850;SDS011;3464;42.728;23.296;2022-12-29T09:57:13;36.97;;;17.50;;
6850;SDS011;3464;42.728;23.296;2022-12-29T09:59:40;40.03;;;18.57;;
6850;SDS011;3464;42.728;23.296;2022-12-29T10:04:49;42.27;;;18.83;;
6850;SDS011;3464;42.728;23.296;2022-12-29T10:10:00;38.50;;;17.77;;
6850;SDS011;3464;42.728;23.296;2022-12-29T10:12:37;35.10;;;16.60;;
6850;SDS011;3464;42.728;23.296;2022-12-29T10:15:13;27.70;;;15.20;;
6850;SDS011;3464;42.728;23.296;2022-12-29T10:20:47;33.43;;;16.53;;
6850;SDS011;3464;42.728;23.296;2022-12-29T10:23:27;31.47;;;16.57;;
6850;SDS011;3464;42.728;23.296;2022-12-29T10:25:57;35.13;;;16.57;;
6850;SDS011;3464;42.728;23.296;2022-12-29T10:28:24;38.37;;;16.60;;
6850;SDS011;3464;42.728;23.296;2022-12-29T10:30:51;36.23;;;16.63;;
6850;SDS011;3464;42.728;23.296;2022-12-29T10:33:18;33.00;;;15.43;;
6850;SDS011;3464;42.728;23.296;2022-12-29T10:35:45;36.00;;;15.97;;
6850;SDS011;3464;42.728;23.296;2022-12-29T10:38:19;37.00;;;16.37;;
6850;SDS011;3464;42.728;23.296;2022-12-29T10:41:03;30.73;;;16.70;;
6850;SDS011;3464;42.728;23.296;2022-12-29T10:43:36;34.23;;;16.50;;
6850;SDS011;3464;42.728;23.296;2022-12-29T10:46:02;28.23;;;16.00;;
6850;SDS011;3464;42.728;23.296;2022-12-29T10:48:31;33.37;;;17.00;;
6850;SDS011;3464;42.728;23.296;2022-12-29T10:50:57;30.17;;;16.03;;
6850;SDS011;3464;42.728;23.296;2022-12-29T10:53:25;31.23;;;16.97;;
6850;SDS011;3464;42.728;23.296;2022-12-29T10:55:51;31.43;;;16.20;;
6850;SDS011;3464;42.728;23.296;2022-12-29T10:58:17;35.80;;;17.10;;
6850;SDS011;3464;42.728;23.296;2022-12-29T11:00:48;44.07;;;23.00;;
6850;SDS011;3464;42.728;23.296;2022-12-29T11:05:46;36.93;;;18.57;;
6850;SDS011;3464;42.728;23.296;2022-12-29T11:08:30;33.30;;;17.43;;
6850;SDS011;3464;42.728;23.296;2022-12-29T11:10:59;31.60;;;17.00;;
6850;SDS011;3464;42.728;23.296;2022-12-29T11:13:26;32.07;;;16.83;;
6850;SDS011;3464;42.728;23.296;2022-12-29T11:15:52;29.03;;;16.80;;
6850;SDS011;3464;42.728;23.296;2022-12-29T11:18:21;32.80;;;18.20;;
6850;SDS011;3464;42.728;23.296;2022-12-29T11:20:51;31.60;;;16.60;;
6850;SDS011;3464;42.728;23.296;2022-12-29T11:23:27;31.87;;;18.60;;
6850;SDS011;3464;42.728;23.296;2022-12-29T11:26:07;30.30;;;16.50;;
6850;SDS011;3464;42.728;23.296;2022-12-29T11:28:44;33.73;;;16.43;;
6850;SDS011;3464;42.728;23.296;2022-12-29T11:31:10;35.67;;;18.23;;
6850;SDS011;3464;42.728;23.296;2022-12-29T11:33:38;36.17;;;19.10;;
6850;SDS011;3464;42.728;23.296;2022-12-29T11:36:05;31.87;;;17.20;;
6850;SDS011;3464;42.728;23.296;2022-12-29T11:38:35;36.97;;;19.17;;
6850;SDS011;3464;42.728;23.296;2022-12-29T11:41:02;33.27;;;15.77;;
6850;SDS011;3464;42.728;23.296;2022-12-29T11:43:31;32.57;;;16.10;;
6850;SDS011;3464;42.728;23.296;2022-12-29T11:45:59;33.73;;;17.03;;
6850;SDS011;3464;42.728;23.296;2022-12-29T11:48:26;36.00;;;16.33;;
6850;SDS011;3464;42.728;23.296;2022-12-29T11:50:53;37.70;;;16.97;;
6850;SDS011;3464;42.728;23.296;2022-12-29T11:53:21;44.17;;;18.67;;
6850;SDS011;3464;42.728;23.296;2022-12-29T11:55:59;34.77;;;17.37;;
6850;SDS011;3464;42.728;23.296;2022-12-29T11:58:28;29.90;;;17.10;;
6850;SDS011;3464;42.728;23.296;2022-12-29T12:00:54;35.70;;;18.30;;
6850;SDS011;3464;42.728;23.296;2022-12-29T12:03:21;36.47;;;17.30;;
6850;SDS011;3464;42.728;23.296;2022-12-29T12:05:54;36.37;;;18.50;;
6850;SDS011;3464;42.728;23.296;2022-12-29T12:08:22;35.20;;;17.80;;
6850;SDS011;3464;42.728;23.296;2022-12-29T12:10:55;35.23;;;18.03;;
6850;SDS011;3464;42.728;23.296;2022-12-29T12:13:23;34.13;;;17.47;;
6850;SDS011;3464;42.728;23.296;2022-12-29T12:15:51;37.00;;;17.20;;
6850;SDS011;3464;42.728;23.296;2022-12-29T12:18:21;33.53;;;18.40;;
6850;SDS011;3464;42.728;23.296;2022-12-29T12:20:48;35.60;;;18.30;;
6850;SDS011;3464;42.728;23.296;2022-12-29T12:23:19;46.13;;;20.20;;
6850;SDS011;3464;42.728;23.296;2022-12-29T12:25:50;36.90;;;17.10;;
6850;SDS011;3464;42.728;23.296;2022-12-29T12:28:34;33.77;;;17.70;;
6850;SDS011;3464;42.728;23.296;2022-12-29T12:30:59;28.70;;;16.30;;
6850;SDS011;3464;42.728;23.296;2022-12-29T12:33:34;34.80;;;17.60;;
6850;SDS011;3464;42.728;23.296;2022-12-29T12:39:02;33.77;;;18.70;;
6850;SDS011;3464;42.728;23.296;2022-12-29T12:44:18;38.23;;;17.60;;
6850;SDS011;3464;42.728;23.296;2022-12-29T12:49:28;35.53;;;17.73;;
6850;SDS011;3464;42.728;23.296;2022-12-29T12:54:51;33.33;;;15.87;;
6850;SDS011;3464;42.728;23.296;2022-12-29T12:57:19;34.40;;;18.57;;
6850;SDS011;3464;42.728;23.296;2022-12-29T13:00:03;42.80;;;19.50;;
6850;SDS011;3464;42.728;23.296;2022-12-29T13:02:36;37.57;;;18.40;;
6850;SDS011;3464;42.728;23.296;2022-12-29T13:05:06;37.37;;;18.40;;
6850;SDS011;3464;42.728;23.296;2022-12-29T13:07:47;54.73;;;16.90;;
6850;SDS011;3464;42.728;23.296;2022-12-29T13:12:55;37.63;;;17.77;;
6850;SDS011;3464;42.728;23.296;2022-12-29T13:21:27;30.03;;;16.53;;
6850;SDS011;3464;42.728;23.296;2022-12-29T13:24:00;34.00;;;18.07;;
6850;SDS011;3464;42.728;23.296;2022-12-29T13:26:44;32.57;;;17.27;;
6850;SDS011;3464;42.728;23.296;2022-12-29T13:29:32;34.80;;;18.33;;
6850;SDS011;3464;42.728;23.296;2022-12-29T13:32:08;35.13;;;18.87;;
6850;SDS011;3464;42.728;23.296;2022-12-29T13:34:45;36.10;;;18.90;;
6850;SDS011;3464;42.728;23.296;2022-12-29T13:37:12;39.40;;;20.27;;
6850;SDS011;3464;42.728;23.296;2022-12-29T13:39:41;37.87;;;20.40;;
6850;SDS011;3464;42.728;23.296;2022-12-29T13:42:06;37.33;;;19.70;;
6850;SDS011;3464;42.728;23.296;2022-12-29T13:44:34;41.30;;;20.57;;
6850;SDS011;3464;42.728;23.296;2022-12-29T13:47:21;41.30;;;20.90;;
6850;SDS011;3464;42.728;23.296;2022-12-29T13:49:47;40.13;;;20.57;;
6850;SDS011;3464;42.728;23.296;2022-12-29T13:52:20;37.40;;;19.50;;
6850;SDS011;3464;42.728;23.296;2022-12-29T13:54:54;35.67;;;18.70;;
6850;SDS011;3464;42.728;23.296;2022-12-29T13:57:28;38.03;;;19.10;;
6850;SDS011;3464;42.728;23.296;2022-12-29T14:00:03;41.87;;;21.30;;
6850;SDS011;3464;42.728;23.296;2022-12-29T14:02:31;37.47;;;20.60;;
6850;SDS011;3464;42.728;23.296;2022-12-29T14:04:58;37.83;;;20.57;;
6850;SDS011;3464;42.728;23.296;2022-12-29T14:07:26;47.50;;;19.60;;
6850;SDS011;3464;42.728;23.296;2022-12-29T14:09:53;43.90;;;23.13;;
6850;SDS011;3464;42.728;23.296;2022-12-29T14:12:20;45.70;;;24.17;;
6850;SDS011;3464;42.728;23.296;2022-12-29T14:14:48;38.77;;;21.70;;
6850;SDS011;3464;42.728;23.296;2022-12-29T14:17:17;49.73;;;23.40;;
6850;SDS011;3464;42.728;23.296;2022-12-29T14:19:42;40.93;;;21.63;;
6850;SDS011;3464;42.728;23.296;2022-12-29T14:22:22;46.40;;;23.17;;
6850;SDS011;3464;42.728;23.296;2022-12-29T14:28:14;42.93;;;21.97;;
6850;SDS011;3464;42.728;23.296;2022-12-29T14:30:52;42.07;;;23.20;;
6850;SDS011;3464;42.728;23.296;2022-12-29T14:33:19;43.50;;;22.20;;
6850;SDS011;3464;42.728;23.296;2022-12-29T14:35:46;44.20;;;22.40;;
6850;SDS011;3464;42.728;23.296;2022-12-29T14:38:14;45.33;;;23.43;;
6850;SDS011;3464;42.728;23.296;2022-12-29T14:40:40;56.93;;;25.90;;
6850;SDS011;3464;42.728;23.296;2022-12-29T14:43:18;51.13;;;26.13;;
6850;SDS011;3464;42.728;23.296;2022-12-29T14:45:45;49.47;;;26.07;;
6850;SDS011;3464;42.728;23.296;2022-12-29T14:50:46;46.30;;;25.23;;
6850;SDS011;3464;42.728;23.296;2022-12-29T14:55:54;51.73;;;25.87;;
6850;SDS011;3464;42.728;23.296;2022-12-29T14:58:28;46.17;;;26.43;;
6850;SDS011;3464;42.728;23.296;2022-12-29T15:00:56;46.43;;;26.67;;
6850;SDS011;3464;42.728;23.296;2022-12-29T15:03:24;53.37;;;26.33;;
6850;SDS011;3464;42.728;23.296;2022-12-29T15:05:51;53.10;;;26.70;;
6850;SDS011;3464;42.728;23.296;2022-12-29T15:08:18;69.60;;;28.87;;
6850;SDS011;3464;42.728;23.296;2022-12-29T15:10:45;59.23;;;29.47;;
6850;SDS011;3464;42.728;23.296;2022-12-29T15:13:15;54.30;;;28.00;;
6850;SDS011;3464;42.728;23.296;2022-12-29T15:15:41;52.97;;;27.20;;
6850;SDS011;3464;42.728;23.296;2022-12-29T15:18:13;52.60;;;26.60;;
6850;SDS011;3464;42.728;23.296;2022-12-29T15:20:40;54.30;;;28.80;;
6850;SDS011;3464;42.728;23.296;2022-12-29T15:23:10;52.97;;;29.23;;
6850;SDS011;3464;42.728;23.296;2022-12-29T15:25:35;57.57;;;29.67;;
6850;SDS011;3464;42.728;23.296;2022-12-29T15:28:03;60.80;;;31.00;;
6850;SDS011;3464;42.728;23.296;2022-12-29T15:30:29;55.50;;;30.10;;
6850;SDS011;3464;42.728;23.296;2022-12-29T15:32:55;61.00;;;30.90;;
6850;SDS011;3464;42.728;23.296;2022-12-29T15:35:23;57.97;;;31.00;;
6850;SDS011;3464;42.728;23.296;2022-12-29T15:37:55;63.53;;;29.80;;
6850;SDS011;3464;42.728;23.296;2022-12-29T15:40:22;53.03;;;30.50;;